sensor_id;sensor_type;location;lat;lon;timestamp;temperature;humidity
7461;DHT22;6757;52.258;12.840;2022-09-21T00:00:22;5.10;99.90
7461;DHT22;6757;52.258;12.840;2022-09-21T00:02:49;5.10;99.90
7461;DHT22;6757;52.258;12.840;2022-09-21T00:05:17;5.10;99.90
7461;DHT22;6757;52.258;12.840;2022-09-21T00:07:44;5.00;99.90
7461;DHT22;6757;52.258;12.840;2022-09-21T00:10:11;5.00;99.90
7461;DHT22;6757;52.258;12.840;2022-09-21T00:12:38;5.00;99.90
7461;DHT22;6757;52.258;12.840;2022-09-21T00:15:06;4.90;99.90
7461;DHT22;6757;52.258;12.840;2022-09-21T00:17:35;4.90;99.90
7461;DHT22;6757;52.258;12.840;2022-09-21T00:20:03;4.90;99.90
7461;DHT22;6757;52.258;12.840;2022-09-21T00:22:32;4.80;99.90
7461;DHT22;6757;52.258;12.840;2022-09-21T00:24:59;4.80;99.90
7461;DHT22;6757;52.258;12.840;2022-09-21T00:27:28;4.80;99.90
7461;DHT22;6757;52.258;12.840;2022-09-21T00:29:56;4.80;99.90
7461;DHT22;6757;52.258;12.840;2022-09-21T00:32:23;4.70;99.90
7461;DHT22;6757;52.258;12.840;2022-09-21T00:34:51;4.70;99.90
7461;DHT22;6757;52.258;12.840;2022-09-21T00:37:19;4.70;99.90
7461;DHT22;6757;52.258;12.840;2022-09-21T00:39:47;4.70;99.90
7461;DHT22;6757;52.258;12.840;2022-09-21T00:42:16;4.60;99.90
7461;DHT22;6757;52.258;12.840;2022-09-21T00:44:45;4.60;99.90
7461;DHT22;6757;52.258;12.840;2022-09-21T00:47:15;4.60;99.90
7461;DHT22;6757;52.258;12.840;2022-09-21T00:49:45;4.60;99.90
7461;DHT22;6757;52.258;12.840;2022-09-21T00:52:15;4.50;99.90
7461;DHT22;6757;52.258;12.840;2022-09-21T00:54:48;4.50;99.90
7461;DHT22;6757;52.258;12.840;2022-09-21T00:57:18;4.50;99.90
7461;DHT22;6757;52.258;12.840;2022-09-21T00:59:48;4.50;99.90
7461;DHT22;6757;52.258;12.840;2022-09-21T01:04:44;4.40;99.90
7461;DHT22;6757;52.258;12.840;2022-09-21T01:07:16;4.40;99.90
7461;DHT22;6757;52.258;12.840;2022-09-21T01:09:46;4.40;99.90
7461;DHT22;6757;52.258;12.840;2022-09-21T01:12:25;4.40;99.90
7461;DHT22;6757;52.258;12.840;2022-09-21T01:15:10;4.40;99.90
7461;DHT22;6757;52.258;12.840;2022-09-21T01:17:45;4.30;99.90
7461;DHT22;6757;52.258;12.840;2022-09-21T01:23:53;4.30;99.90
7461;DHT22;6757;52.258;12.840;2022-09-21T01:27:04;4.30;99.90
7461;DHT22;6757;52.258;12.840;2022-09-21T01:29:43;4.20;99.90
7461;DHT22;6757;52.258;12.840;2022-09-21T01:32:13;4.20;99.90
7461;DHT22;6757;52.258;12.840;2022-09-21T01:34:49;4.20;99.90
7461;DHT22;6757;52.258;12.840;2022-09-21T01:37:21;4.20;99.90
7461;DHT22;6757;52.258;12.840;2022-09-21T01:39:53;4.10;99.90
7461;DHT22;6757;52.258;12.840;2022-09-21T01:42:24;4.10;99.90
7461;DHT22;6757;52.258;12.840;2022-09-21T01:44:57;4.10;99.90
7461;DHT22;6757;52.258;12.840;2022-09-21T01:47:27;4.10;99.90
7461;DHT22;6757;52.258;12.840;2022-09-21T01:49:58;4.10;99.90
7461;DHT22;6757;52.258;12.840;2022-09-21T01:52:31;4.00;99.90
7461;DHT22;6757;52.258;12.840;2022-09-21T01:55:03;4.00;99.90
7461;DHT22;6757;52.258;12.840;2022-09-21T01:57:38;4.00;99.90
7461;DHT22;6757;52.258;12.840;2022-09-21T02:00:10;4.00;99.90
7461;DHT22;6757;52.258;12.840;2022-09-21T02:02:41;4.00;99.90
7461;DHT22;6757;52.258;12.840;2022-09-21T02:05:12;4.00;99.90
7461;DHT22;6757;52.258;12.840;2022-09-21T02:07:42;3.90;99.90
7461;DHT22;6757;52.258;12.840;2022-09-21T02:10:14;3.90;99.90
7461;DHT22;6757;52.258;12.840;2022-09-21T02:12:45;3.90;99.90
7461;DHT22;6757;52.258;12.840;2022-09-21T02:15:14;3.90;99.90
7461;DHT22;6757;52.258;12.840;2022-09-21T02:17:46;3.90;99.90
7461;DHT22;6757;52.258;12.840;2022-09-21T02:20:28;3.80;99.90
7461;DHT22;6757;52.258;12.840;2022-09-21T02:23:02;3.80;99.90
7461;DHT22;6757;52.258;12.840;2022-09-21T02:25:40;3.80;99.90
7461;DHT22;6757;52.258;12.840;2022-09-21T02:28:20;3.80;99.90
7461;DHT22;6757;52.258;12.840;2022-09-21T02:31:11;3.80;99.90
7461;DHT22;6757;52.258;12.840;2022-09-21T02:33:46;3.70;99.90
7461;DHT22;6757;52.258;12.840;2022-09-21T02:36:20;3.70;99.90
7461;DHT22;6757;52.258;12.840;2022-09-21T02:38:57;3.70;99.90
7461;DHT22;6757;52.258;12.840;2022-09-21T02:41:34;3.70;99.90
7461;DHT22;6757;52.258;12.840;2022-09-21T02:44:07;3.70;99.90
7461;DHT22;6757;52.258;12.840;2022-09-21T02:46:42;3.70;99.90
7461;DHT22;6757;52.258;12.840;2022-09-21T02:49:20;3.70;99.90
7461;DHT22;6757;52.258;12.840;2022-09-21T02:51:56;3.60;99.90
7461;DHT22;6757;52.258;12.840;2022-09-21T02:54:27;3.70;99.90
7461;DHT22;6757;52.258;12.840;2022-09-21T02:56:56;3.60;99.90
7461;DHT22;6757;52.258;12.840;2022-09-21T02:59:24;3.60;99.90
7461;DHT22;6757;52.258;12.840;2022-09-21T03:01:53;3.60;99.90
7461;DHT22;6757;52.258;12.840;2022-09-21T03:04:20;3.60;99.90
7461;DHT22;6757;52.258;12.840;2022-09-21T03:09:15;3.60;99.90
7461;DHT22;6757;52.258;12.840;2022-09-21T03:11:43;3.50;99.90
7461;DHT22;6757;52.258;12.840;2022-09-21T03:14:10;3.50;99.90
7461;DHT22;6757;52.258;12.840;2022-09-21T03:19:05;3.60;99.90
7461;DHT22;6757;52.258;12.840;2022-09-21T03:21:33;4.10;99.90
7461;DHT22;6757;52.258;12.840;2022-09-21T03:24:00;4.60;99.90
7461;DHT22;6757;52.258;12.840;2022-09-21T03:26:27;4.60;99.90
7461;DHT22;6757;52.258;12.840;2022-09-21T03:28:54;4.60;99.90
7461;DHT22;6757;52.258;12.840;2022-09-21T03:31:21;4.50;99.90
7461;DHT22;6757;52.258;12.840;2022-09-21T03:33:48;4.40;99.90
7461;DHT22;6757;52.258;12.840;2022-09-21T03:36:17;4.30;99.90
7461;DHT22;6757;52.258;12.840;2022-09-21T03:38:44;4.20;99.90
7461;DHT22;6757;52.258;12.840;2022-09-21T03:41:10;4.10;99.90
7461;DHT22;6757;52.258;12.840;2022-09-21T03:43:38;4.00;99.90
7461;DHT22;6757;52.258;12.840;2022-09-21T03:46:06;3.90;99.90
7461;DHT22;6757;52.258;12.840;2022-09-21T03:48:33;3.80;99.90
7461;DHT22;6757;52.258;12.840;2022-09-21T03:51:00;3.70;99.90
7461;DHT22;6757;52.258;12.840;2022-09-21T03:53:28;3.60;99.90
7461;DHT22;6757;52.258;12.840;2022-09-21T03:55:56;3.60;99.90
7461;DHT22;6757;52.258;12.840;2022-09-21T03:58:23;3.60;99.90
7461;DHT22;6757;52.258;12.840;2022-09-21T04:00:50;3.70;99.90
7461;DHT22;6757;52.258;12.840;2022-09-21T04:03:17;3.60;99.90
7461;DHT22;6757;52.258;12.840;2022-09-21T04:05:44;3.60;99.90
7461;DHT22;6757;52.258;12.840;2022-09-21T04:08:10;3.60;99.90
7461;DHT22;6757;52.258;12.840;2022-09-21T04:10:39;3.60;99.90
7461;DHT22;6757;52.258;12.840;2022-09-21T04:13:07;3.60;99.90
7461;DHT22;6757;52.258;12.840;2022-09-21T04:15:35;3.60;99.90
7461;DHT22;6757;52.258;12.840;2022-09-21T04:18:02;3.50;99.90
7461;DHT22;6757;52.258;12.840;2022-09-21T04:20:30;3.50;99.90
7461;DHT22;6757;52.258;12.840;2022-09-21T04:22:57;3.50;99.90
7461;DHT22;6757;52.258;12.840;2022-09-21T04:25:24;3.60;99.90
7461;DHT22;6757;52.258;12.840;2022-09-21T04:27:53;3.60;99.90
7461;DHT22;6757;52.258;12.840;2022-09-21T04:30:20;3.60;99.90
7461;DHT22;6757;52.258;12.840;2022-09-21T04:32:47;3.50;99.90
7461;DHT22;6757;52.258;12.840;2022-09-21T04:35:14;3.50;99.90
7461;DHT22;6757;52.258;12.840;2022-09-21T04:37:41;3.50;99.90
7461;DHT22;6757;52.258;12.840;2022-09-21T04:40:08;3.50;99.90
7461;DHT22;6757;52.258;12.840;2022-09-21T04:42:36;3.40;99.90
7461;DHT22;6757;52.258;12.840;2022-09-21T04:45:05;3.40;99.90
7461;DHT22;6757;52.258;12.840;2022-09-21T04:47:32;3.40;99.90
7461;DHT22;6757;52.258;12.840;2022-09-21T04:49:59;3.30;99.90
7461;DHT22;6757;52.258;12.840;2022-09-21T04:52:26;3.30;99.90
7461;DHT22;6757;52.258;12.840;2022-09-21T04:57:20;3.20;99.90
7461;DHT22;6757;52.258;12.840;2022-09-21T04:59:47;3.20;99.90
7461;DHT22;6757;52.258;12.840;2022-09-21T05:02:16;3.10;99.90
7461;DHT22;6757;52.258;12.840;2022-09-21T05:04:42;3.10;99.90
7461;DHT22;6757;52.258;12.840;2022-09-21T05:07:09;3.10;99.90
7461;DHT22;6757;52.258;12.840;2022-09-21T05:09:36;3.10;99.90
7461;DHT22;6757;52.258;12.840;2022-09-21T05:12:21;3.10;99.90
7461;DHT22;6757;52.258;12.840;2022-09-21T05:14:47;3.00;99.90
7461;DHT22;6757;52.258;12.840;2022-09-21T05:17:16;3.10;99.90
7461;DHT22;6757;52.258;12.840;2022-09-21T05:19:46;3.00;99.90
7461;DHT22;6757;52.258;12.840;2022-09-21T05:22:13;3.00;99.90
7461;DHT22;6757;52.258;12.840;2022-09-21T05:24:40;3.00;99.90
7461;DHT22;6757;52.258;12.840;2022-09-21T05:27:07;3.00;99.90
7461;DHT22;6757;52.258;12.840;2022-09-21T05:29:34;3.00;99.90
7461;DHT22;6757;52.258;12.840;2022-09-21T05:32:06;3.00;99.90
7461;DHT22;6757;52.258;12.840;2022-09-21T05:34:44;3.00;99.90
7461;DHT22;6757;52.258;12.840;2022-09-21T05:37:30;3.10;99.90
7461;DHT22;6757;52.258;12.840;2022-09-21T05:40:04;3.10;99.90
7461;DHT22;6757;52.258;12.840;2022-09-21T05:42:32;3.10;99.90
7461;DHT22;6757;52.258;12.840;2022-09-21T05:45:00;3.10;99.90
7461;DHT22;6757;52.258;12.840;2022-09-21T05:47:36;3.20;99.90
7461;DHT22;6757;52.258;12.840;2022-09-21T05:50:23;3.20;99.90
7461;DHT22;6757;52.258;12.840;2022-09-21T05:53:01;3.20;99.90
7461;DHT22;6757;52.258;12.840;2022-09-21T05:55:47;3.20;99.90
7461;DHT22;6757;52.258;12.840;2022-09-21T05:58:25;3.30;99.90
7461;DHT22;6757;52.258;12.840;2022-09-21T06:01:03;3.40;99.90
7461;DHT22;6757;52.258;12.840;2022-09-21T06:03:40;3.40;99.90
7461;DHT22;6757;52.258;12.840;2022-09-21T06:06:09;3.40;99.90
7461;DHT22;6757;52.258;12.840;2022-09-21T06:08:36;3.50;99.90
7461;DHT22;6757;52.258;12.840;2022-09-21T06:11:03;3.50;99.90
7461;DHT22;6757;52.258;12.840;2022-09-21T06:13:30;3.60;99.90
7461;DHT22;6757;52.258;12.840;2022-09-21T06:16:00;3.70;99.90
7461;DHT22;6757;52.258;12.840;2022-09-21T06:18:27;3.70;99.90
7461;DHT22;6757;52.258;12.840;2022-09-21T06:20:54;3.70;99.90
7461;DHT22;6757;52.258;12.840;2022-09-21T06:23:22;3.80;99.90
7461;DHT22;6757;52.258;12.840;2022-09-21T06:25:53;3.80;99.90
7461;DHT22;6757;52.258;12.840;2022-09-21T06:28:20;3.90;99.90
7461;DHT22;6757;52.258;12.840;2022-09-21T06:30:50;3.90;99.90
7461;DHT22;6757;52.258;12.840;2022-09-21T06:33:18;3.90;99.90
7461;DHT22;6757;52.258;12.840;2022-09-21T06:35:51;4.00;99.90
7461;DHT22;6757;52.258;12.840;2022-09-21T06:38:19;4.00;99.90
7461;DHT22;6757;52.258;12.840;2022-09-21T06:40:48;4.10;99.90
7461;DHT22;6757;52.258;12.840;2022-09-21T06:43:15;4.10;99.90
7461;DHT22;6757;52.258;12.840;2022-09-21T06:45:42;4.20;99.90
7461;DHT22;6757;52.258;12.840;2022-09-21T06:48:09;4.20;99.90
7461;DHT22;6757;52.258;12.840;2022-09-21T06:50:36;4.20;99.90
7461;DHT22;6757;52.258;12.840;2022-09-21T06:53:03;4.30;99.90
7461;DHT22;6757;52.258;12.840;2022-09-21T06:55:30;4.40;99.90
7461;DHT22;6757;52.258;12.840;2022-09-21T06:58:00;4.40;99.90
7461;DHT22;6757;52.258;12.840;2022-09-21T07:00:28;4.50;99.90
7461;DHT22;6757;52.258;12.840;2022-09-21T07:02:56;4.50;99.90
7461;DHT22;6757;52.258;12.840;2022-09-21T07:05:23;4.60;99.90
7461;DHT22;6757;52.258;12.840;2022-09-21T07:07:50;4.70;99.90
7461;DHT22;6757;52.258;12.840;2022-09-21T07:10:21;4.80;99.90
7461;DHT22;6757;52.258;12.840;2022-09-21T07:12:48;4.90;99.90
7461;DHT22;6757;52.258;12.840;2022-09-21T07:15:18;5.00;99.90
7461;DHT22;6757;52.258;12.840;2022-09-21T07:17:45;5.20;99.90
7461;DHT22;6757;52.258;12.840;2022-09-21T07:20:12;5.40;99.90
7461;DHT22;6757;52.258;12.840;2022-09-21T07:22:39;5.50;99.90
7461;DHT22;6757;52.258;12.840;2022-09-21T07:25:07;5.70;99.90
7461;DHT22;6757;52.258;12.840;2022-09-21T07:27:34;6.00;99.90
7461;DHT22;6757;52.258;12.840;2022-09-21T07:30:02;6.20;99.90
7461;DHT22;6757;52.258;12.840;2022-09-21T07:32:31;6.40;99.90
7461;DHT22;6757;52.258;12.840;2022-09-21T07:34:57;6.60;99.90
7461;DHT22;6757;52.258;12.840;2022-09-21T07:37:26;6.80;99.90
7461;DHT22;6757;52.258;12.840;2022-09-21T07:39:53;7.00;99.90
7461;DHT22;6757;52.258;12.840;2022-09-21T07:42:21;7.10;99.90
7461;DHT22;6757;52.258;12.840;2022-09-21T07:44:50;7.30;99.90
7461;DHT22;6757;52.258;12.840;2022-09-21T07:47:18;7.50;99.90
7461;DHT22;6757;52.258;12.840;2022-09-21T07:49:46;7.60;99.90
7461;DHT22;6757;52.258;12.840;2022-09-21T07:52:13;7.80;99.90
7461;DHT22;6757;52.258;12.840;2022-09-21T07:54:40;8.00;99.90
7461;DHT22;6757;52.258;12.840;2022-09-21T07:57:07;8.10;99.90
7461;DHT22;6757;52.258;12.840;2022-09-21T07:59:52;8.20;99.90
7461;DHT22;6757;52.258;12.840;2022-09-21T08:02:21;8.40;99.90
7461;DHT22;6757;52.258;12.840;2022-09-21T08:04:50;8.50;99.90
7461;DHT22;6757;52.258;12.840;2022-09-21T08:07:18;8.70;99.90
7461;DHT22;6757;52.258;12.840;2022-09-21T08:09:45;8.80;99.90
7461;DHT22;6757;52.258;12.840;2022-09-21T08:12:14;9.00;99.90
7461;DHT22;6757;52.258;12.840;2022-09-21T08:14:41;9.10;99.90
7461;DHT22;6757;52.258;12.840;2022-09-21T08:17:08;9.20;99.90
7461;DHT22;6757;52.258;12.840;2022-09-21T08:19:35;9.30;99.90
7461;DHT22;6757;52.258;12.840;2022-09-21T08:22:04;9.40;99.90
7461;DHT22;6757;52.258;12.840;2022-09-21T08:24:31;9.50;99.90
7461;DHT22;6757;52.258;12.840;2022-09-21T08:26:59;9.60;99.90
7461;DHT22;6757;52.258;12.840;2022-09-21T08:29:26;9.70;99.90
7461;DHT22;6757;52.258;12.840;2022-09-21T08:31:54;9.80;99.90
7461;DHT22;6757;52.258;12.840;2022-09-21T08:34:21;9.90;99.90
7461;DHT22;6757;52.258;12.840;2022-09-21T08:36:48;9.90;99.90
7461;DHT22;6757;52.258;12.840;2022-09-21T08:39:17;10.00;99.90
7461;DHT22;6757;52.258;12.840;2022-09-21T08:41:56;10.10;99.90
7461;DHT22;6757;52.258;12.840;2022-09-21T08:44:32;10.20;99.90
7461;DHT22;6757;52.258;12.840;2022-09-21T08:47:10;10.20;99.90
7461;DHT22;6757;52.258;12.840;2022-09-21T08:49:40;10.40;99.90
7461;DHT22;6757;52.258;12.840;2022-09-21T08:52:12;10.50;99.90
7461;DHT22;6757;52.258;12.840;2022-09-21T08:54:47;10.60;99.90
7461;DHT22;6757;52.258;12.840;2022-09-21T08:57:16;10.80;99.90
7461;DHT22;6757;52.258;12.840;2022-09-21T08:59:45;10.90;99.90
7461;DHT22;6757;52.258;12.840;2022-09-21T09:02:29;11.00;99.90
7461;DHT22;6757;52.258;12.840;2022-09-21T09:05:06;11.20;99.90
7461;DHT22;6757;52.258;12.840;2022-09-21T09:07:58;11.30;99.90
7461;DHT22;6757;52.258;12.840;2022-09-21T09:10:38;11.50;99.90
7461;DHT22;6757;52.258;12.840;2022-09-21T09:13:19;11.60;99.90
7461;DHT22;6757;52.258;12.840;2022-09-21T09:16:04;11.80;99.90
7461;DHT22;6757;52.258;12.840;2022-09-21T09:18:43;11.90;99.90
7461;DHT22;6757;52.258;12.840;2022-09-21T09:21:16;12.00;99.90
7461;DHT22;6757;52.258;12.840;2022-09-21T09:23:47;12.10;99.90
7461;DHT22;6757;52.258;12.840;2022-09-21T09:26:23;12.20;99.90
7461;DHT22;6757;52.258;12.840;2022-09-21T09:28:56;12.30;99.90
7461;DHT22;6757;52.258;12.840;2022-09-21T09:31:28;12.40;99.90
7461;DHT22;6757;52.258;12.840;2022-09-21T09:34:00;12.50;99.90
7461;DHT22;6757;52.258;12.840;2022-09-21T09:36:36;12.60;99.90
7461;DHT22;6757;52.258;12.840;2022-09-21T09:39:09;12.70;99.90
7461;DHT22;6757;52.258;12.840;2022-09-21T09:41:52;12.70;99.90
7461;DHT22;6757;52.258;12.840;2022-09-21T09:47:31;12.80;99.90
7461;DHT22;6757;52.258;12.840;2022-09-21T09:50:05;12.90;99.90
7461;DHT22;6757;52.258;12.840;2022-09-21T09:52:35;13.00;99.90
7461;DHT22;6757;52.258;12.840;2022-09-21T09:55:13;13.00;99.90
7461;DHT22;6757;52.258;12.840;2022-09-21T09:57:43;13.10;99.90
7461;DHT22;6757;52.258;12.840;2022-09-21T10:00:13;13.20;99.90
7461;DHT22;6757;52.258;12.840;2022-09-21T10:02:52;13.30;99.90
7461;DHT22;6757;52.258;12.840;2022-09-21T10:05:22;13.40;99.90
7461;DHT22;6757;52.258;12.840;2022-09-21T10:07:51;13.50;99.90
7461;DHT22;6757;52.258;12.840;2022-09-21T10:10:33;13.60;99.90
7461;DHT22;6757;52.258;12.840;2022-09-21T10:13:13;13.70;99.90
7461;DHT22;6757;52.258;12.840;2022-09-21T10:15:48;13.70;99.90
7461;DHT22;6757;52.258;12.840;2022-09-21T10:18:19;13.80;99.90
7461;DHT22;6757;52.258;12.840;2022-09-21T10:20:55;13.90;99.90
7461;DHT22;6757;52.258;12.840;2022-09-21T10:23:24;13.90;99.90
7461;DHT22;6757;52.258;12.840;2022-09-21T10:25:54;14.00;99.90
7461;DHT22;6757;52.258;12.840;2022-09-21T10:28:24;14.10;99.90
7461;DHT22;6757;52.258;12.840;2022-09-21T10:31:11;14.30;99.90
7461;DHT22;6757;52.258;12.840;2022-09-21T10:33:50;14.40;99.90
7461;DHT22;6757;52.258;12.840;2022-09-21T10:36:30;14.60;99.90
7461;DHT22;6757;52.258;12.840;2022-09-21T10:39:18;14.70;99.90
7461;DHT22;6757;52.258;12.840;2022-09-21T10:41:48;14.80;99.90
7461;DHT22;6757;52.258;12.840;2022-09-21T10:44:20;14.90;99.90
7461;DHT22;6757;52.258;12.840;2022-09-21T10:46:49;15.00;99.90
7461;DHT22;6757;52.258;12.840;2022-09-21T10:49:21;15.00;99.90
7461;DHT22;6757;52.258;12.840;2022-09-21T10:51:51;15.00;99.90
7461;DHT22;6757;52.258;12.840;2022-09-21T10:54:23;14.90;99.90
7461;DHT22;6757;52.258;12.840;2022-09-21T10:56:57;14.90;99.90
7461;DHT22;6757;52.258;12.840;2022-09-21T10:59:29;14.90;99.90
7461;DHT22;6757;52.258;12.840;2022-09-21T11:01:59;15.00;99.90
7461;DHT22;6757;52.258;12.840;2022-09-21T11:04:31;15.10;99.90
7461;DHT22;6757;52.258;12.840;2022-09-21T11:07:14;15.10;99.90
7461;DHT22;6757;52.258;12.840;2022-09-21T11:09:47;15.30;99.90
7461;DHT22;6757;52.258;12.840;2022-09-21T11:12:38;15.40;99.90
7461;DHT22;6757;52.258;12.840;2022-09-21T11:15:17;15.40;99.90
7461;DHT22;6757;52.258;12.840;2022-09-21T11:17:53;15.50;99.90
7461;DHT22;6757;52.258;12.840;2022-09-21T11:20:30;15.50;99.90
7461;DHT22;6757;52.258;12.840;2022-09-21T11:23:12;15.40;99.90
7461;DHT22;6757;52.258;12.840;2022-09-21T11:25:52;15.40;99.90
7461;DHT22;6757;52.258;12.840;2022-09-21T11:28:24;15.30;99.90
7461;DHT22;6757;52.258;12.840;2022-09-21T11:31:17;15.40;99.90
7461;DHT22;6757;52.258;12.840;2022-09-21T11:34:26;15.40;99.90
7461;DHT22;6757;52.258;12.840;2022-09-21T11:37:07;15.50;99.90
7461;DHT22;6757;52.258;12.840;2022-09-21T11:39:51;15.50;99.90
7461;DHT22;6757;52.258;12.840;2022-09-21T11:42:36;15.60;99.90
7461;DHT22;6757;52.258;12.840;2022-09-21T11:45:25;15.70;99.90
7461;DHT22;6757;52.258;12.840;2022-09-21T11:48:10;15.80;99.90
7461;DHT22;6757;52.258;12.840;2022-09-21T11:50:51;15.90;99.90
7461;DHT22;6757;52.258;12.840;2022-09-21T11:53:43;16.00;99.90
7461;DHT22;6757;52.258;12.840;2022-09-21T11:56:32;16.10;99.90
7461;DHT22;6757;52.258;12.840;2022-09-21T11:59:16;16.30;99.90
7461;DHT22;6757;52.258;12.840;2022-09-21T12:02:03;16.40;99.90
7461;DHT22;6757;52.258;12.840;2022-09-21T12:04:48;16.40;99.90
7461;DHT22;6757;52.258;12.840;2022-09-21T12:07:30;16.50;99.90
7461;DHT22;6757;52.258;12.840;2022-09-21T12:10:17;16.60;99.90
7461;DHT22;6757;52.258;12.840;2022-09-21T12:12:57;16.60;99.90
7461;DHT22;6757;52.258;12.840;2022-09-21T12:15:33;16.60;99.90
7461;DHT22;6757;52.258;12.840;2022-09-21T12:18:06;16.50;99.90
7461;DHT22;6757;52.258;12.840;2022-09-21T12:20:44;16.50;99.90
7461;DHT22;6757;52.258;12.840;2022-09-21T12:23:19;16.40;99.90
7461;DHT22;6757;52.258;12.840;2022-09-21T12:25:50;16.30;99.90
7461;DHT22;6757;52.258;12.840;2022-09-21T12:28:24;16.20;99.90
7461;DHT22;6757;52.258;12.840;2022-09-21T12:30:57;16.10;99.90
7461;DHT22;6757;52.258;12.840;2022-09-21T12:33:37;15.90;99.90
7461;DHT22;6757;52.258;12.840;2022-09-21T12:36:12;15.80;99.90
7461;DHT22;6757;52.258;12.840;2022-09-21T12:38:45;15.80;99.90
7461;DHT22;6757;52.258;12.840;2022-09-21T12:41:19;15.90;99.90
7461;DHT22;6757;52.258;12.840;2022-09-21T12:43:55;16.00;99.90
7461;DHT22;6757;52.258;12.840;2022-09-21T12:46:28;16.20;99.90
7461;DHT22;6757;52.258;12.840;2022-09-21T12:49:00;16.30;99.90
7461;DHT22;6757;52.258;12.840;2022-09-21T12:51:34;16.50;99.90
7461;DHT22;6757;52.258;12.840;2022-09-21T12:54:19;16.60;99.90
7461;DHT22;6757;52.258;12.840;2022-09-21T12:56:56;16.70;99.90
7461;DHT22;6757;52.258;12.840;2022-09-21T12:59:34;16.80;99.90
7461;DHT22;6757;52.258;12.840;2022-09-21T13:02:11;16.90;99.90
7461;DHT22;6757;52.258;12.840;2022-09-21T13:05:03;17.10;99.90
7461;DHT22;6757;52.258;12.840;2022-09-21T13:08:02;17.40;99.90
7461;DHT22;6757;52.258;12.840;2022-09-21T13:10:39;18.00;99.90
7461;DHT22;6757;52.258;12.840;2022-09-21T13:13:18;18.50;99.90
7461;DHT22;6757;52.258;12.840;2022-09-21T13:15:49;19.00;99.90
7461;DHT22;6757;52.258;12.840;2022-09-21T13:18:21;19.40;99.90
7461;DHT22;6757;52.258;12.840;2022-09-21T13:20:50;19.90;99.90
7461;DHT22;6757;52.258;12.840;2022-09-21T13:23:26;20.30;99.90
7461;DHT22;6757;52.258;12.840;2022-09-21T13:26:07;20.80;99.90
7461;DHT22;6757;52.258;12.840;2022-09-21T13:28:42;21.20;99.90
7461;DHT22;6757;52.258;12.840;2022-09-21T13:31:53;21.60;99.90
7461;DHT22;6757;52.258;12.840;2022-09-21T13:34:34;22.00;99.90
7461;DHT22;6757;52.258;12.840;2022-09-21T13:37:24;22.40;99.90
7461;DHT22;6757;52.258;12.840;2022-09-21T13:43:43;23.50;97.70
7461;DHT22;6757;52.258;12.840;2022-09-21T13:46:50;24.00;96.00
7461;DHT22;6757;52.258;12.840;2022-09-21T13:49:27;24.40;94.00
7461;DHT22;6757;52.258;12.840;2022-09-21T13:52:01;24.40;92.10
7461;DHT22;6757;52.258;12.840;2022-09-21T13:54:33;24.40;91.70
7461;DHT22;6757;52.258;12.840;2022-09-21T13:57:17;24.40;91.10
7461;DHT22;6757;52.258;12.840;2022-09-21T13:59:46;24.30;89.70
7461;DHT22;6757;52.258;12.840;2022-09-21T14:02:28;24.00;88.30
7461;DHT22;6757;52.258;12.840;2022-09-21T14:05:01;23.80;86.10
7461;DHT22;6757;52.258;12.840;2022-09-21T14:07:31;23.70;82.70
7461;DHT22;6757;52.258;12.840;2022-09-21T14:10:01;23.70;81.40
7461;DHT22;6757;52.258;12.840;2022-09-21T14:12:36;23.80;80.40
7461;DHT22;6757;52.258;12.840;2022-09-21T14:21:11;24.50;76.20
7461;DHT22;6757;52.258;12.840;2022-09-21T14:24:16;24.50;73.90
7461;DHT22;6757;52.258;12.840;2022-09-21T14:26:50;25.50;74.40
7461;DHT22;6757;52.258;12.840;2022-09-21T14:29:25;24.50;73.90
7461;DHT22;6757;52.258;12.840;2022-09-21T14:31:57;24.80;74.20
7461;DHT22;6757;52.258;12.840;2022-09-21T14:34:26;25.10;72.60
7461;DHT22;6757;52.258;12.840;2022-09-21T14:36:57;25.30;71.40
7461;DHT22;6757;52.258;12.840;2022-09-21T14:39:31;25.40;71.00
7461;DHT22;6757;52.258;12.840;2022-09-21T14:42:02;25.70;71.10
7461;DHT22;6757;52.258;12.840;2022-09-21T14:44:38;26.10;70.50
7461;DHT22;6757;52.258;12.840;2022-09-21T14:47:15;26.50;69.00
7461;DHT22;6757;52.258;12.840;2022-09-21T14:53:16;27.20;66.20
7461;DHT22;6757;52.258;12.840;2022-09-21T14:56:06;27.20;66.00
7461;DHT22;6757;52.258;12.840;2022-09-21T14:59:07;27.40;64.00
7461;DHT22;6757;52.258;12.840;2022-09-21T15:01:53;27.50;62.40
7461;DHT22;6757;52.258;12.840;2022-09-21T15:04:37;27.40;61.40
7461;DHT22;6757;52.258;12.840;2022-09-21T15:07:27;27.20;61.20
7461;DHT22;6757;52.258;12.840;2022-09-21T15:10:27;27.30;61.00
7461;DHT22;6757;52.258;12.840;2022-09-21T15:13:38;27.20;60.50
7461;DHT22;6757;52.258;12.840;2022-09-21T15:16:24;27.00;59.60
7461;DHT22;6757;52.258;12.840;2022-09-21T15:19:10;26.80;59.00
7461;DHT22;6757;52.258;12.840;2022-09-21T15:21:41;26.70;59.30
7461;DHT22;6757;52.258;12.840;2022-09-21T15:24:18;26.60;59.40
7461;DHT22;6757;52.258;12.840;2022-09-21T15:26:53;26.40;58.90
7461;DHT22;6757;52.258;12.840;2022-09-21T15:29:30;26.30;59.30
7461;DHT22;6757;52.258;12.840;2022-09-21T15:31:58;26.20;60.00
7461;DHT22;6757;52.258;12.840;2022-09-21T15:34:27;26.30;60.40
7461;DHT22;6757;52.258;12.840;2022-09-21T15:37:05;26.20;60.50
7461;DHT22;6757;52.258;12.840;2022-09-21T15:39:33;26.20;60.70
7461;DHT22;6757;52.258;12.840;2022-09-21T15:42:18;26.20;60.80
7461;DHT22;6757;52.258;12.840;2022-09-21T15:44:48;26.60;61.20
7461;DHT22;6757;52.258;12.840;2022-09-21T15:47:18;26.10;61.10
7461;DHT22;6757;52.258;12.840;2022-09-21T15:49:48;26.00;61.50
7461;DHT22;6757;52.258;12.840;2022-09-21T15:52:22;25.70;61.90
7461;DHT22;6757;52.258;12.840;2022-09-21T15:54:56;25.30;62.10
7461;DHT22;6757;52.258;12.840;2022-09-21T15:57:30;24.80;62.50
7461;DHT22;6757;52.258;12.840;2022-09-21T16:00:01;24.10;62.60
7461;DHT22;6757;52.258;12.840;2022-09-21T16:02:35;23.40;62.90
7461;DHT22;6757;52.258;12.840;2022-09-21T16:05:07;23.00;63.80
7461;DHT22;6757;52.258;12.840;2022-09-21T16:07:39;22.10;64.40
7461;DHT22;6757;52.258;12.840;2022-09-21T16:10:39;21.50;65.40
7461;DHT22;6757;52.258;12.840;2022-09-21T16:13:11;21.00;66.70
7461;DHT22;6757;52.258;12.840;2022-09-21T16:16:02;20.50;67.90
7461;DHT22;6757;52.258;12.840;2022-09-21T16:18:38;20.10;69.10
7461;DHT22;6757;52.258;12.840;2022-09-21T16:21:10;19.70;70.00
7461;DHT22;6757;52.258;12.840;2022-09-21T16:23:45;19.40;71.00
7461;DHT22;6757;52.258;12.840;2022-09-21T16:26:22;19.10;71.80
7461;DHT22;6757;52.258;12.840;2022-09-21T16:31:44;18.50;74.10
7461;DHT22;6757;52.258;12.840;2022-09-21T16:34:20;18.30;75.40
7461;DHT22;6757;52.258;12.840;2022-09-21T16:36:50;18.10;77.30
7461;DHT22;6757;52.258;12.840;2022-09-21T16:39:18;17.80;77.90
7461;DHT22;6757;52.258;12.840;2022-09-21T16:41:56;17.50;79.00
7461;DHT22;6757;52.258;12.840;2022-09-21T16:44:27;17.30;80.40
7461;DHT22;6757;52.258;12.840;2022-09-21T16:47:11;17.10;81.70
7461;DHT22;6757;52.258;12.840;2022-09-21T16:49:40;16.80;83.20
7461;DHT22;6757;52.258;12.840;2022-09-21T16:52:08;16.60;84.50
7461;DHT22;6757;52.258;12.840;2022-09-21T16:54:35;16.40;86.00
7461;DHT22;6757;52.258;12.840;2022-09-21T16:57:05;16.10;87.40
7461;DHT22;6757;52.258;12.840;2022-09-21T16:59:32;15.90;89.10
7461;DHT22;6757;52.258;12.840;2022-09-21T17:02:01;15.80;90.30
7461;DHT22;6757;52.258;12.840;2022-09-21T17:04:31;15.60;91.00
7461;DHT22;6757;52.258;12.840;2022-09-21T17:06:59;15.40;91.70